createdAt,value
2019-02-24T20:29:13.148Z,103751.07
2019-02-24T20:31:41.145Z,103750.91
2019-02-24T20:34:08.776Z,103752.45
2019-02-24T20:36:36.394Z,103750.12
2019-02-24T20:39:05.975Z,103751.71
2019-02-24T20:41:33.604Z,103759.52
2019-02-24T20:44:01.212Z,103766.07
2019-02-24T20:46:29.167Z,103769.97
2019-02-24T20:48:56.791Z,103771.21
2019-02-24T20:51:24.899Z,103756.19
2019-02-24T20:53:52.523Z,103758.14
2019-02-24T20:56:16.140Z,103763.34
2019-02-24T20:56:38.725Z,103765.79
2019-02-24T20:57:01.300Z,103771.09
2019-02-24T20:57:23.887Z,103768.44
2019-02-24T20:57:47.061Z,103772.41
2019-02-24T20:58:09.656Z,103769.37
2019-02-24T20:58:32.239Z,103769.76
2019-02-24T20:58:54.858Z,103774.66
2019-02-24T20:59:17.539Z,103770.30
2019-02-24T20:59:40.120Z,103775.59
2019-02-24T21:00:02.804Z,103773.88
2019-02-24T21:00:26.570Z,103776.53
2019-02-24T21:00:50.031Z,103775.66
2019-02-24T21:01:12.622Z,103780.11
2019-02-24T21:01:35.262Z,103773.10
2019-02-24T21:01:57.847Z,103773.10
2019-02-24T21:02:20.430Z,103775.75
2019-02-24T21:02:43.305Z,103777.62
2019-02-24T21:03:05.883Z,103782.91
2019-02-24T21:03:28.473Z,103780.32
2019-02-24T21:03:51.056Z,103781.20
2019-02-24T21:04:13.934Z,103772.63
2019-02-24T21:07:00.644Z,103773.16
2019-02-24T21:09:28.316Z,103773.56
2019-02-24T21:11:57.138Z,103777.77
2019-02-24T21:18:08.038Z,103773.77
2019-02-24T21:23:34.196Z,103765.78
2019-02-24T21:26:02.124Z,103758.38
2019-02-24T21:28:29.741Z,103762.80
2019-02-24T21:30:57.361Z,103759.86
2019-02-24T21:33:25.318Z,103760.94
2019-02-24T21:35:53.296Z,103757.66
2019-02-24T21:38:20.892Z,103748.70
2019-02-24T21:40:48.561Z,103751.48
2019-02-24T21:43:16.238Z,103745.98
2019-02-24T21:45:43.871Z,103743.49
2019-02-24T21:48:11.566Z,103748.53
2019-02-24T21:50:39.204Z,103748.29
2019-02-24T21:53:06.803Z,103755.58
2019-02-24T21:55:34.799Z,103762.08
2019-02-24T21:58:04.280Z,103769.37
2019-02-24T22:00:31.744Z,103767.44
2019-02-24T22:02:59.351Z,103774.33
2019-02-24T22:05:26.980Z,103765.75
2019-02-24T22:07:55.729Z,103758.50
2019-02-24T22:10:23.605Z,103757.18
2019-02-24T22:12:51.504Z,103763.25
2019-02-24T22:15:19.691Z,103755.33
2019-02-24T22:17:47.288Z,103750.05
2019-02-24T22:20:15.279Z,103753.61
2019-02-24T22:22:43.183Z,103745.83
2019-02-24T22:25:11.585Z,103737.11
2019-02-24T22:27:39.188Z,103736.27
2019-02-24T22:30:11.081Z,103733.69
2019-02-24T22:32:39.051Z,103733.30
2019-02-24T22:35:07.446Z,103729.47
2019-02-24T22:37:35.045Z,103726.97
2019-02-24T22:40:02.719Z,103727.67
2019-02-24T22:42:30.336Z,103723.06
2019-02-24T22:44:58.383Z,103728.71
2019-02-24T22:47:26.000Z,103728.11
2019-02-24T22:49:53.609Z,103723.11
2019-02-24T22:52:21.777Z,103730.72
2019-02-24T22:54:49.368Z,103725.88
2019-02-24T22:57:16.994Z,103731.16
2019-02-24T22:59:44.963Z,103729.48
2019-02-24T23:02:12.581Z,103723.02
2019-02-24T23:04:40.286Z,103714.84
2019-02-24T23:07:08.279Z,103710.09
2019-02-24T23:09:35.896Z,103709.30
2019-02-24T23:12:03.500Z,103718.59
2019-02-24T23:14:31.448Z,103713.53
2019-02-24T23:16:59.055Z,103717.63
2019-02-24T23:19:26.972Z,103713.80
2019-02-24T23:21:54.581Z,103720.12
2019-02-24T23:24:24.049Z,103723.99
2019-02-24T23:26:51.527Z,103723.86
2019-02-24T23:29:19.135Z,103729.80
2019-02-24T23:31:46.764Z,103728.20
2019-02-24T23:34:14.411Z,103730.97
2019-02-24T23:36:42.055Z,103730.66
2019-02-24T23:39:11.365Z,103731.63
2019-02-24T23:41:38.986Z,103723.31
2019-02-24T23:44:06.588Z,103718.97
2019-02-24T23:46:34.214Z,103718.52
2019-02-24T23:49:01.851Z,103721.55
2019-02-24T23:51:29.764Z,103713.56
2019-02-24T23:53:57.377Z,103706.57
2019-02-24T23:56:24.997Z,103706.17
2019-02-24T23:58:53.067Z,103708.42
